Time;durP1;ratioP1;P1;durP2;ratioP2;P2;SDS_P1;SDS_P2;PMS_P1;PMS_P2;Temp;Humidity;BMP_temperature;BMP_pressure;BME280_temperature;BME280_humidity;BME280_pressure;Samples;Min_cycle;Max_cycle;Signal;HPM_P1;HPM_P2
2021/07/19 05:53:53;;;;;;;9.00;6.73;;;;;;;;;;10635280;27;20442;-87
2021/07/19 05:58:54;;;;;;;10.18;7.13;;;;;;;;;;10633665;27;20062;-87
2021/07/19 06:03:55;;;;;;;7.72;6.15;;;;;;;;;;10632253;28;20024;-86
2021/07/19 06:08:56;;;;;;;8.98;6.93;;;;;;;;;;10632645;28;20058;-86
2021/07/19 06:13:57;;;;;;;8.30;6.32;;;;;;;;;;10631937;28;20058;-86
2021/07/19 06:18:58;;;;;;;12.10;9.07;;;;;;;;;;10640024;27;20026;-86
2021/07/19 06:23:59;;;;;;;7.43;5.60;;;;;;;;;;10634090;28;20401;-86
2021/07/19 06:29:00;;;;;;;7.78;6.10;;;;;;;;;;10631262;28;20024;-83
2021/07/19 06:34:01;;;;;;;10.43;7.68;;;;;;;;;;10632037;28;20072;-81
2021/07/19 06:39:03;;;;;;;10.63;7.25;;;;;;;;;;10629496;28;20030;-81
2021/07/19 06:44:04;;;;;;;6.97;5.55;;;;;;;;;;10630141;28;20499;-83
2021/07/19 06:49:05;;;;;;;9.23;7.18;;;;;;;;;;10630349;28;20115;-83
2021/07/19 06:54:06;;;;;;;9.70;6.72;;;;;;;;;;10630331;28;20092;-82
2021/07/19 06:59:07;;;;;;;8.15;5.97;;;;;;;;;;10633803;28;20025;-81
2021/07/19 07:04:17;;;;;;;5.75;4.88;;;;;;;;;;10608769;28;20026;-85
2021/07/19 07:09:42;;;;;;;6.10;5.10;;;;;;;;;;10595791;28;20028;-85
2021/07/19 07:32:21;;;;;;;8.02;6.07;;;;;;;;;;10467981;28;20017;-86
2021/07/19 07:37:36;;;;;;;9.45;6.00;;;;;;;;;;10463757;28;20145;-89
2021/07/19 07:43:22;;;;;;;7.70;5.32;;;;;;;;;;10453459;28;20013;-88
2021/07/19 07:48:57;;;;;;;8.95;7.05;;;;;;;;;;10449893;28;20107;-88
2021/07/19 09:36:01;;;;;;;7.93;6.57;;;;;;;;;;10597213;28;20059;-84
2021/07/19 09:41:10;;;;;;;8.90;7.15;;;;;;;;;;10578111;28;20031;-86
2021/07/19 09:46:11;;;;;;;9.05;6.70;;;;;;;;;;10574924;28;20031;-85
2021/07/19 09:51:12;;;;;;;8.40;7.05;;;;;;;;;;10575844;28;20034;-84
2021/07/19 09:56:15;;;;;;;8.38;6.88;;;;;;;;;;10579887;28;20032;-82
2021/07/19 10:01:43;;;;;;;10.20;7.78;;;;;;;;;;10601059;28;20045;-85
2021/07/19 10:06:48;;;;;;;11.75;7.93;;;;;;;;;;10584981;28;20024;-83
2021/07/19 10:11:51;;;;;;;10.63;7.97;;;;;;;;;;10597279;28;20027;-86
2021/07/19 10:16:52;;;;;;;9.52;7.20;;;;;;;;;;10577910;28;20031;-83
2021/07/19 10:21:54;;;;;;;8.30;6.68;;;;;;;;;;10572278;28;20020;-82
2021/07/19 10:26:55;;;;;;;10.10;7.05;;;;;;;;;;10573340;28;20023;-83
2021/07/19 10:31:57;;;;;;;9.38;7.63;;;;;;;;;;10573834;28;20438;-82
2021/07/19 10:37:01;;;;;;;10.57;8.13;;;;;;;;;;10617379;27;20062;-83
2021/07/19 10:42:15;;;;;;;11.57;7.43;;;;;;;;;;10587801;27;20035;-84
2021/07/19 10:47:27;;;;;;;15.00;8.13;;;;;;;;;;10621655;27;20042;-85
2021/07/19 10:52:41;;;;;;;12.75;7.93;;;;;;;;;;10620853;27;20484;-83
2021/07/19 10:57:45;;;;;;;13.73;8.75;;;;;;;;;;10624235;27;20389;-84
2021/07/19 11:02:47;;;;;;;11.02;8.02;;;;;;;;;;10622215;27;20072;-81
2021/07/19 11:07:48;;;;;;;9.98;7.63;;;;;;;;;;10614006;27;20019;-81
2021/07/19 11:12:50;;;;;;;10.45;7.80;;;;;;;;;;10622417;27;20123;-81
2021/07/19 11:17:51;;;;;;;9.65;7.47;;;;;;;;;;10624064;27;20027;-81
2021/07/19 11:23:00;;;;;;;9.93;7.93;;;;;;;;;;10620961;27;20018;-80
2021/07/19 11:28:01;;;;;;;9.43;7.68;;;;;;;;;;10620996;27;20030;-81
2021/07/19 11:33:09;;;;;;;10.35;7.65;;;;;;;;;;10639505;27;20042;-83
2021/07/19 11:38:14;;;;;;;9.93;7.47;;;;;;;;;;10625632;27;20031;-83
2021/07/19 11:43:15;;;;;;;7.85;6.88;;;;;;;;;;10639243;27;20540;-83
2021/07/19 11:48:23;;;;;;;9.73;8.05;;;;;;;;;;10621903;27;20011;-83
2021/07/19 11:53:24;;;;;;;11.57;8.25;;;;;;;;;;10620096;27;20030;-83
2021/07/19 11:58:25;;;;;;;10.52;8.63;;;;;;;;;;10622196;27;20031;-83
2021/07/19 12:03:29;;;;;;;11.07;8.90;;;;;;;;;;10623318;27;20034;-83
2021/07/19 12:08:33;;;;;;;11.25;8.98;;;;;;;;;;10642795;27;20015;-83
2021/07/19 12:13:35;;;;;;;11.60;8.70;;;;;;;;;;10622226;27;20072;-84
2021/07/19 12:18:37;;;;;;;9.93;8.65;;;;;;;;;;10620685;27;20018;-84
2021/07/19 12:23:38;;;;;;;12.93;9.07;;;;;;;;;;10623588;27;20027;-85
2021/07/19 12:28:51;;;;;;;13.18;8.82;;;;;;;;;;10623240;27;20481;-84
2021/07/19 12:33:52;;;;;;;9.85;8.10;;;;;;;;;;10643074;27;20035;-84
2021/07/19 12:38:53;;;;;;;12.07;8.60;;;;;;;;;;10625971;27;20019;-84
2021/07/19 12:43:54;;;;;;;10.13;7.90;;;;;;;;;;10625452;27;20027;-83
2021/07/19 12:48:55;;;;;;;10.40;8.05;;;;;;;;;;10625400;27;20392;-84
2021/07/19 12:54:06;;;;;;;11.82;8.63;;;;;;;;;;10623244;27;20107;-84
2021/07/19 12:59:10;;;;;;;11.70;8.45;;;;;;;;;;10623028;27;20034;-86
2021/07/19 13:04:19;;;;;;;9.27;7.88;;;;;;;;;;10625386;27;20031;-87
2021/07/19 13:09:20;;;;;;;9.45;7.97;;;;;;;;;;10641448;27;20027;-84
2021/07/19 13:14:21;;;;;;;9.50;7.95;;;;;;;;;;10622941;27;20372;-83
2021/07/19 13:19:35;;;;;;;8.88;7.95;;;;;;;;;;10623003;27;20027;-84
2021/07/19 13:24:49;;;;;;;9.50;7.45;;;;;;;;;;10618140;27;20016;-79
2021/07/19 13:29:51;;;;;;;9.55;8.05;;;;;;;;;;10618444;27;20031;-79
2021/07/19 13:35:00;;;;;;;9.95;8.05;;;;;;;;;;10629178;27;20506;-80
2021/07/19 13:40:13;;;;;;;9.90;7.82;;;;;;;;;;10617171;27;20083;-80
2021/07/19 13:45:22;;;;;;;12.38;8.35;;;;;;;;;;10622503;27;20027;-83
2021/07/19 13:50:23;;;;;;;10.95;8.30;;;;;;;;;;10622056;28;20052;-84
2021/07/19 13:55:24;;;;;;;12.48;8.45;;;;;;;;;;10643583;28;20488;-82
2021/07/19 14:00:25;;;;;;;10.85;8.38;;;;;;;;;;10618420;28;20031;-86
2021/07/19 14:05:29;;;;;;;10.95;8.07;;;;;;;;;;10620259;28;20025;-83
2021/07/19 14:10:30;;;;;;;9.73;7.95;;;;;;;;;;10617154;27;20027;-84
2021/07/19 14:15:32;;;;;;;9.93;8.27;;;;;;;;;;10643918;27;20027;-85
2021/07/19 14:20:33;;;;;;;10.73;8.65;;;;;;;;;;10623816;27;20026;-83
2021/07/19 14:25:35;;;;;;;13.95;9.65;;;;;;;;;;10640605;27;20026;-82
2021/07/19 14:30:36;;;;;;;12.63;8.68;;;;;;;;;;10621535;27;20027;-82
2021/07/19 14:35:37;;;;;;;12.82;9.02;;;;;;;;;;10620509;27;20155;-83
2021/07/19 14:40:44;;;;;;;10.23;8.18;;;;;;;;;;10638808;27;20107;-84
2021/07/19 14:45:45;;;;;;;9.57;7.85;;;;;;;;;;10621048;27;20141;-83
2021/07/19 14:50:46;;;;;;;11.35;8.45;;;;;;;;;;10623222;27;20023;-83
2021/07/19 14:55:47;;;;;;;10.75;8.82;;;;;;;;;;10621752;27;20027;-83
2021/07/19 15:00:48;;;;;;;10.88;9.55;;;;;;;;;;10641903;27;20031;-83
2021/07/19 15:05:52;;;;;;;12.20;9.40;;;;;;;;;;10642045;27;20059;-83
2021/07/19 15:10:53;;;;;;;10.13;8.90;;;;;;;;;;10622763;27;20448;-83
2021/07/19 15:15:54;;;;;;;10.25;8.65;;;;;;;;;;10621194;27;20029;-82
2021/07/19 15:20:56;;;;;;;10.38;8.60;;;;;;;;;;10620268;27;20077;-84
2021/07/19 15:25:57;;;;;;;12.77;9.50;;;;;;;;;;10620198;27;20026;-82
2021/07/19 15:30:58;;;;;;;11.52;9.77;;;;;;;;;;10622420;27;20023;-83
2021/07/19 15:41:39;;;;;;;11.03;9.13;;;;;;;;;;10554748;27;20027;-84
2021/07/19 15:46:40;;;;;;;10.77;8.80;;;;;;;;;;10639910;27;20024;-84
2021/07/19 15:51:41;;;;;;;12.68;9.32;;;;;;;;;;10621399;27;20022;-85
2021/07/19 15:56:42;;;;;;;10.80;8.60;;;;;;;;;;10641402;27;20065;-85
2021/07/19 16:01:43;;;;;;;12.20;9.77;;;;;;;;;;10620867;27;20043;-84
2021/07/19 16:06:44;;;;;;;11.23;8.90;;;;;;;;;;10620863;27;20054;-85
2021/07/19 16:11:44;;;;;;;10.82;8.82;;;;;;;;;;10620346;27;20023;-84
2021/07/19 16:16:45;;;;;;;12.65;9.50;;;;;;;;;;10637379;27;20043;-84
2021/07/19 16:21:46;;;;;;;11.65;9.00;;;;;;;;;;10619836;27;20030;-86
2021/07/19 16:26:47;;;;;;;13.15;9.82;;;;;;;;;;10617277;27;20015;-84
2021/07/19 16:31:48;;;;;;;12.80;8.90;;;;;;;;;;10661295;27;20035;-83
2021/07/19 16:36:49;;;;;;;13.85;10.55;;;;;;;;;;10643937;27;20114;-84
2021/07/19 16:41:50;;;;;;;12.52;10.10;;;;;;;;;;10633841;27;20027;-85
2021/07/19 16:46:51;;;;;;;13.38;9.80;;;;;;;;;;10621247;27;20019;-85
2021/07/19 16:51:52;;;;;;;13.10;10.30;;;;;;;;;;10620002;27;20022;-85
2021/07/19 16:56:53;;;;;;;12.48;9.88;;;;;;;;;;10622057;27;20099;-85
2021/07/19 17:01:54;;;;;;;13.40;9.88;;;;;;;;;;10617908;27;20614;-85
2021/07/19 17:06:55;;;;;;;13.25;9.80;;;;;;;;;;10619945;27;20385;-85
2021/07/19 17:11:56;;;;;;;13.43;10.20;;;;;;;;;;10618789;27;20091;-86
2021/07/19 17:16:57;;;;;;;14.95;10.43;;;;;;;;;;10618214;27;20018;-85
2021/07/19 17:21:58;;;;;;;13.90;10.60;;;;;;;;;;10619775;27;20461;-85
2021/07/19 17:27:00;;;;;;;13.30;9.57;;;;;;;;;;10620330;27;20026;-85
2021/07/19 17:32:01;;;;;;;12.35;9.65;;;;;;;;;;10618918;27;20030;-85
2021/07/19 17:37:03;;;;;;;13.57;10.23;;;;;;;;;;10619223;27;20035;-85
2021/07/19 17:42:04;;;;;;;12.85;9.48;;;;;;;;;;10620055;27;20122;-85
2021/07/19 17:47:05;;;;;;;12.98;10.02;;;;;;;;;;10618056;27;20016;-84
2021/07/19 17:52:06;;;;;;;13.27;9.55;;;;;;;;;;10617060;28;20047;-86
2021/07/19 17:57:07;;;;;;;11.63;9.50;;;;;;;;;;10617734;28;20059;-84
2021/07/19 18:02:08;;;;;;;13.40;9.13;;;;;;;;;;10619491;28;20035;-85
2021/07/19 18:07:09;;;;;;;10.88;8.57;;;;;;;;;;10617193;28;20020;-85
2021/07/19 18:12:10;;;;;;;14.02;8.07;;;;;;;;;;10618850;28;20109;-85
2021/07/19 18:17:12;;;;;;;11.73;8.50;;;;;;;;;;10601045;28;20039;-85
2021/07/19 18:32:33;;;;;;;8.57;7.33;;;;;;;;;;10637058;28;20035;-85
2021/07/19 18:37:35;;;;;;;11.57;7.50;;;;;;;;;;10618332;28;20277;-85
2021/07/19 18:42:36;;;;;;;9.32;7.05;;;;;;;;;;10617420;28;20054;-83
2021/07/19 18:47:37;;;;;;;9.10;7.45;;;;;;;;;;10615457;28;20019;-84
2021/07/19 18:52:38;;;;;;;7.63;6.72;;;;;;;;;;10620772;28;20373;-84
2021/07/19 18:57:39;;;;;;;9.55;6.95;;;;;;;;;;10619140;27;20049;-84
2021/07/19 19:02:40;;;;;;;8.93;7.32;;;;;;;;;;10625048;27;20049;-84
2021/07/19 19:07:42;;;;;;;8.10;6.93;;;;;;;;;;10625297;27;20049;-84
2021/07/19 19:12:44;;;;;;;9.10;7.28;;;;;;;;;;10626796;27;20023;-84
2021/07/19 19:17:45;;;;;;;8.90;6.85;;;;;;;;;;10637705;27;20031;-82
2021/07/19 19:22:46;;;;;;;9.82;7.22;;;;;;;;;;10645755;27;20027;-82
2021/07/19 19:27:48;;;;;;;9.43;7.47;;;;;;;;;;10646285;27;20521;-83
2021/07/19 19:32:49;;;;;;;8.98;6.85;;;;;;;;;;10663293;27;20035;-82
2021/07/19 19:37:51;;;;;;;9.35;7.13;;;;;;;;;;10643053;27;20447;-82
2021/07/19 19:42:53;;;;;;;7.90;7.10;;;;;;;;;;10644546;27;20031;-82
2021/07/19 19:47:54;;;;;;;9.32;6.28;;;;;;;;;;10646035;27;19999;-83
2021/07/19 19:52:59;;;;;;;7.88;7.00;;;;;;;;;;10646769;27;20019;-83
2021/07/19 19:58:00;;;;;;;8.15;6.70;;;;;;;;;;10651538;27;20024;-82
2021/07/19 20:03:01;;;;;;;8.57;6.72;;;;;;;;;;10656578;27;20039;-85
2021/07/19 20:08:03;;;;;;;9.00;7.22;;;;;;;;;;10654239;27;20056;-83
2021/07/19 20:13:05;;;;;;;8.32;6.68;;;;;;;;;;10656950;27;20008;-83
2021/07/19 20:18:06;;;;;;;8.55;6.70;;;;;;;;;;10659588;27;20007;-83
